Time;durP1;ratioP1;P1;durP2;ratioP2;P2;SDS_P1;SDS_P2;PMS_P1;PMS_P2;Temp;Humidity;BMP_temperature;BMP_pressure;BME280_temperature;BME280_humidity;BME280_pressure;Samples;Min_cycle;Max_cycle;Signal;HPM_P1;HPM_P2
2023/09/06 00:00:04;;;;;;;0.10;0.10;;;19.90;99.90;;;;;;4995507;28;20726;-81
2023/09/06 00:02:30;;;;;;;0.10;0.10;;;19.90;99.90;;;;;;4987681;28;20226;-80
2023/09/06 00:04:55;;;;;;;0.10;0.10;;;19.90;99.90;;;;;;4988235;28;20192;-81
2023/09/06 00:07:23;;;;;;;0.10;0.10;;;19.90;99.90;;;;;;4994291;28;20195;-80
2023/09/06 00:09:48;;;;;;;0.10;0.10;;;19.90;99.90;;;;;;4989790;28;20258;-81
2023/09/06 00:12:14;;;;;;;0.10;0.10;;;19.90;99.90;;;;;;4994231;28;20669;-81
2023/09/06 00:14:39;;;;;;;0.10;0.10;;;19.90;99.90;;;;;;4987839;28;20688;-81
2023/09/06 00:17:05;;;;;;;0.10;0.10;;;19.80;99.90;;;;;;4994707;28;20529;-80
2023/09/06 00:19:30;;;;;;;0.10;0.10;;;19.80;99.90;;;;;;4987143;28;20292;-82
2023/09/06 00:21:59;;;;;;;0.10;0.10;;;19.80;99.90;;;;;;5001607;28;20200;-81
2023/09/06 00:24:24;;;;;;;0.10;0.10;;;19.80;99.90;;;;;;4994602;28;20211;-81
2023/09/06 00:26:50;;;;;;;0.10;0.10;;;19.70;99.90;;;;;;4985704;28;20279;-80
2023/09/06 00:29:15;;;;;;;0.10;0.10;;;19.90;99.90;;;;;;4986072;28;20307;-80
2023/09/06 00:31:41;;;;;;;0.10;0.10;;;19.80;99.90;;;;;;4992234;28;20229;-80
2023/09/06 00:34:06;;;;;;;0.10;0.10;;;19.80;99.90;;;;;;4987730;28;20254;-81
2023/09/06 00:36:33;;;;;;;0.10;0.10;;;19.80;99.90;;;;;;4984629;28;20195;-81
2023/09/06 00:38:59;;;;;;;0.10;0.10;;;19.80;99.90;;;;;;4993902;28;20198;-81
2023/09/06 00:41:26;;;;;;;0.10;0.10;;;19.70;99.90;;;;;;4986458;28;20224;-81
2023/09/06 00:43:52;;;;;;;0.10;0.10;;;19.70;99.90;;;;;;4994023;28;20204;-81
2023/09/06 00:46:19;;;;;;;0.10;0.10;;;19.70;99.90;;;;;;4993614;28;20521;-80
2023/09/06 00:48:50;;;;;;;0.10;0.10;;;19.70;99.90;;;;;;4987993;28;20264;-81
2023/09/06 00:51:16;;;;;;;0.10;0.10;;;19.60;99.90;;;;;;4991098;28;20679;-81
2023/09/06 00:53:43;;;;;;;0.10;0.10;;;19.60;99.90;;;;;;4985406;28;20195;-81
2023/09/06 00:56:09;;;;;;;0.10;0.10;;;19.60;99.90;;;;;;4985672;28;20199;-81
2023/09/06 00:58:36;;;;;;;0.10;0.10;;;19.60;99.90;;;;;;4993345;28;20192;-81
2023/09/06 01:01:05;;;;;;;0.10;0.10;;;19.60;99.90;;;;;;4998223;28;20714;-80
2023/09/06 01:03:31;;;;;;;0.10;0.10;;;19.50;99.90;;;;;;4993129;28;20200;-81
2023/09/06 01:06:18;;;;;;;0.10;0.10;;;19.50;99.90;;;;;;4982334;28;20543;-81
2023/09/06 01:08:55;;;;;;;0.10;0.10;;;19.50;99.90;;;;;;4984848;28;20194;-81
2023/09/06 01:11:23;;;;;;;0.10;0.10;;;19.40;99.90;;;;;;4986249;28;20231;-81
2023/09/06 01:13:53;;;;;;;0.10;0.10;;;19.40;99.90;;;;;;4985948;28;20187;-81
2023/09/06 01:16:39;;;;;;;0.10;0.10;;;19.40;99.90;;;;;;4992322;28;20188;-80
2023/09/06 01:19:09;;;;;;;0.10;0.10;;;19.30;99.90;;;;;;4984415;28;20192;-80
2023/09/06 01:22:17;;;;;;;0.10;0.10;;;19.20;99.90;;;;;;4990020;28;20208;-81
2023/09/06 01:24:43;;;;;;;0.10;0.10;;;19.20;99.90;;;;;;4983972;28;20738;-80
2023/09/06 01:27:12;;;;;;;0.10;0.10;;;19.10;99.90;;;;;;4991396;28;20185;-81
2023/09/06 01:29:37;;;;;;;0.10;0.10;;;19.10;99.90;;;;;;4999728;28;20556;-82
2023/09/06 01:32:05;;;;;;;0.10;0.10;;;19.00;99.90;;;;;;4988340;28;20214;-80
2023/09/06 01:34:30;;;;;;;0.10;0.10;;;19.00;99.90;;;;;;4985761;28;20246;-81
2023/09/06 01:36:56;;;;;;;0.10;0.10;;;18.90;99.90;;;;;;5004073;28;20187;-80
2023/09/06 01:39:22;;;;;;;0.10;0.10;;;18.90;99.90;;;;;;4996087;28;20184;-81
2023/09/06 01:41:48;;;;;;;0.10;0.10;;;18.80;99.90;;;;;;5005385;28;20652;-81
2023/09/06 01:44:14;;;;;;;0.10;0.10;;;18.80;99.90;;;;;;4987318;28;20211;-80
2023/09/06 01:46:40;;;;;;;0.10;0.10;;;18.70;99.90;;;;;;4990426;28;20183;-80
2023/09/06 01:49:06;;;;;;;0.10;0.10;;;18.70;99.90;;;;;;4986780;28;20196;-81
2023/09/06 01:51:31;;;;;;;0.10;0.10;;;18.70;99.90;;;;;;4994250;28;20203;-80
2023/09/06 01:53:57;;;;;;;0.10;0.10;;;18.70;99.90;;;;;;4986843;28;20195;-80
2023/09/06 01:56:22;;;;;;;0.10;0.10;;;18.70;99.90;;;;;;4996387;28;20212;-81
2023/09/06 01:58:48;;;;;;;0.10;0.10;;;18.60;99.90;;;;;;4994048;28;20191;-80
2023/09/06 02:01:13;;;;;;;0.10;0.10;;;18.60;99.90;;;;;;4994662;28;20211;-81
2023/09/06 02:03:39;;;;;;;0.10;0.10;;;18.50;99.90;;;;;;4989590;28;20218;-80
2023/09/06 02:06:04;;;;;;;0.10;0.10;;;18.50;99.90;;;;;;4988129;28;20235;-81
2023/09/06 02:08:31;;;;;;;0.10;0.10;;;18.50;99.90;;;;;;4987750;28;20203;-80
2023/09/06 02:10:56;;;;;;;0.10;0.10;;;18.40;99.90;;;;;;4986879;28;20250;-80
2023/09/06 02:13:22;;;;;;;0.10;0.10;;;18.40;99.90;;;;;;4988447;28;20190;-80
2023/09/06 02:15:47;;;;;;;0.10;0.10;;;18.40;99.90;;;;;;5004630;28;20538;-80
2023/09/06 02:18:15;;;;;;;0.10;0.10;;;18.30;99.90;;;;;;5003240;28;20193;-80
2023/09/06 02:20:44;;;;;;;0.10;0.10;;;18.30;99.90;;;;;;4993951;28;20198;-81
2023/09/06 02:23:10;;;;;;;0.10;0.10;;;18.20;99.90;;;;;;4990051;28;20219;-80
2023/09/06 02:25:36;;;;;;;0.10;0.10;;;18.10;99.90;;;;;;4987421;28;20617;-81
2023/09/06 02:28:06;;;;;;;0.10;0.10;;;18.10;99.90;;;;;;4986569;28;20235;-80
2023/09/06 02:30:33;;;;;;;0.10;0.10;;;18.10;99.90;;;;;;5003130;28;20247;-81
2023/09/06 02:32:58;;;;;;;0.10;0.10;;;18.20;99.90;;;;;;4984389;28;20719;-80
2023/09/06 02:35:24;;;;;;;0.10;0.10;;;18.10;99.90;;;;;;4992879;28;20194;-80
2023/09/06 02:37:50;;;;;;;0.10;0.10;;;18.10;99.90;;;;;;4992437;28;20302;-80
2023/09/06 02:40:18;;;;;;;0.10;0.10;;;18.10;99.90;;;;;;4984777;28;20202;-81
2023/09/06 02:42:44;;;;;;;0.10;0.10;;;18.10;99.90;;;;;;4986597;28;20228;-80
2023/09/06 02:45:13;;;;;;;0.10;0.10;;;18.10;99.90;;;;;;4993840;28;20550;-81
2023/09/06 02:47:50;;;;;;;0.10;0.10;;;18.10;99.90;;;;;;4993274;28;20284;-80
2023/09/06 02:50:23;;;;;;;0.10;0.10;;;18.10;99.90;;;;;;4992143;28;20192;-81
2023/09/06 02:52:50;;;;;;;0.10;0.10;;;18.10;99.90;;;;;;4983098;28;21824;-80
2023/09/06 02:55:16;;;;;;;0.10;0.10;;;18.00;99.90;;;;;;4991525;28;20203;-80
2023/09/06 02:57:43;;;;;;;0.10;0.10;;;18.00;99.90;;;;;;4999288;28;20191;-80
2023/09/06 03:00:18;;;;;;;0.10;0.10;;;18.00;99.90;;;;;;4986124;28;20240;-80
2023/09/06 03:02:45;;;;;;;0.10;0.10;;;18.00;99.90;;;;;;4999907;28;20224;-81
2023/09/06 03:05:11;;;;;;;0.10;0.10;;;18.00;99.90;;;;;;4990952;28;20183;-80
2023/09/06 03:07:36;;;;;;;0.10;0.10;;;17.90;99.90;;;;;;4992024;28;20248;-81
2023/09/06 03:10:02;;;;;;;0.10;0.10;;;17.90;99.90;;;;;;4992423;28;20554;-80
2023/09/06 03:12:29;;;;;;;0.10;0.10;;;17.90;99.90;;;;;;4984636;28;20225;-81
2023/09/06 03:14:55;;;;;;;0.10;0.10;;;17.90;99.90;;;;;;4998994;28;20652;-81
2023/09/06 03:17:22;;;;;;;0.10;0.10;;;17.90;99.90;;;;;;4986524;28;20227;-80
2023/09/06 03:19:53;;;;;;;0.10;0.10;;;17.90;99.90;;;;;;4984005;28;20287;-81
2023/09/06 03:22:21;;;;;;;0.10;0.10;;;17.90;99.90;;;;;;4983370;28;20231;-80
2023/09/06 03:24:48;;;;;;;0.10;0.10;;;17.90;99.90;;;;;;4985947;28;20627;-81
2023/09/06 03:27:16;;;;;;;0.10;0.10;;;17.80;99.90;;;;;;4992013;28;20188;-80
2023/09/06 03:29:45;;;;;;;0.10;0.10;;;17.80;99.90;;;;;;4986983;28;20236;-81
2023/09/06 03:32:11;;;;;;;0.10;0.10;;;17.70;99.90;;;;;;4983759;28;20199;-80
2023/09/06 03:34:38;;;;;;;0.10;0.10;;;17.60;99.90;;;;;;4984401;28;20233;-81
2023/09/06 03:37:08;;;;;;;0.10;0.10;;;17.50;99.90;;;;;;4984628;28;20673;-81
2023/09/06 03:39:41;;;;;;;0.10;0.10;;;17.50;99.90;;;;;;4982986;28;20204;-80
2023/09/06 03:42:13;;;;;;;0.10;0.10;;;17.50;99.90;;;;;;4997097;28;20274;-80
2023/09/06 03:44:39;;;;;;;0.10;0.10;;;17.50;99.90;;;;;;4990344;28;20247;-80
2023/09/06 03:47:13;;;;;;;0.10;0.10;;;17.50;99.90;;;;;;4989712;28;20624;-80
2023/09/06 03:49:40;;;;;;;0.10;0.10;;;17.50;99.90;;;;;;4989108;28;20180;-81
2023/09/06 03:52:06;;;;;;;0.10;0.10;;;17.60;99.90;;;;;;4987921;28;20234;-80
2023/09/06 03:54:34;;;;;;;0.10;0.10;;;17.60;99.90;;;;;;4993425;28;20196;-80
2023/09/06 03:57:07;;;;;;;0.10;0.10;;;17.60;99.90;;;;;;4986753;28;20647;-81
2023/09/06 03:59:35;;;;;;;0.10;0.10;;;17.60;99.90;;;;;;4983143;28;20196;-81
2023/09/06 04:02:01;;;;;;;0.10;0.10;;;17.60;99.90;;;;;;4992491;28;20873;-80
2023/09/06 04:04:28;;;;;;;0.10;0.10;;;17.60;99.90;;;;;;4985882;28;20243;-81
2023/09/06 04:06:54;;;;;;;0.10;0.10;;;17.60;99.90;;;;;;4985292;28;20197;-80
2023/09/06 04:09:27;;;;;;;0.10;0.10;;;17.60;99.90;;;;;;4984176;28;20182;-81
2023/09/06 04:11:53;;;;;;;0.10;0.10;;;17.70;99.90;;;;;;4983845;28;20227;-80
2023/09/06 04:14:19;;;;;;;0.10;0.10;;;17.60;99.90;;;;;;4993227;28;20212;-80
2023/09/06 04:16:44;;;;;;;0.10;0.10;;;17.60;99.90;;;;;;4983939;28;20243;-81
2023/09/06 04:19:09;;;;;;;0.10;0.10;;;17.40;99.90;;;;;;4992777;28;20183;-80
2023/09/06 04:21:37;;;;;;;0.10;0.10;;;17.20;99.90;;;;;;4984489;28;20231;-80
2023/09/06 04:24:04;;;;;;;0.10;0.10;;;17.00;99.90;;;;;;4989583;28;20279;-80
2023/09/06 04:26:30;;;;;;;0.10;0.10;;;16.80;99.90;;;;;;4984663;28;21196;-80
2023/09/06 04:28:55;;;;;;;0.10;0.10;;;16.80;99.90;;;;;;4993115;28;20176;-80
2023/09/06 04:31:21;;;;;;;0.10;0.10;;;16.80;99.90;;;;;;4991185;28;20252;-80
2023/09/06 04:33:46;;;;;;;0.10;0.10;;;16.90;99.90;;;;;;4984346;28;20239;-80
2023/09/06 04:36:12;;;;;;;0.10;0.10;;;16.90;99.90;;;;;;4985322;28;20187;-81
2023/09/06 04:38:37;;;;;;;0.10;0.10;;;17.10;99.90;;;;;;4982986;28;20279;-80
2023/09/06 04:41:03;;;;;;;0.10;0.10;;;17.10;99.90;;;;;;4982131;28;20271;-81
2023/09/06 04:43:28;;;;;;;0.10;0.10;;;17.20;99.90;;;;;;4983259;28;20215;-81
2023/09/06 04:45:54;;;;;;;0.10;0.10;;;17.20;99.90;;;;;;4983845;28;20216;-81
2023/09/06 04:48:23;;;;;;;0.10;0.10;;;17.20;99.90;;;;;;4984552;28;20223;-80
2023/09/06 04:50:49;;;;;;;0.10;0.10;;;17.20;99.90;;;;;;4984439;28;20183;-81
2023/09/06 04:53:17;;;;;;;0.10;0.10;;;17.30;99.90;;;;;;4989128;28;20286;-80
2023/09/06 04:55:44;;;;;;;0.10;0.10;;;17.30;99.90;;;;;;4991300;28;20185;-81
2023/09/06 04:58:10;;;;;;;0.10;0.10;;;17.30;99.90;;;;;;4981405;28;20271;-80
2023/09/06 05:00:39;;;;;;;0.10;0.10;;;17.40;99.90;;;;;;4987056;28;20188;-80
2023/09/06 05:03:10;;;;;;;0.10;0.10;;;17.40;99.90;;;;;;4993262;28;20231;-80
2023/09/06 05:05:37;;;;;;;0.10;0.10;;;17.40;99.90;;;;;;4985032;28;20284;-80
2023/09/06 05:08:03;;;;;;;0.10;0.10;;;17.40;99.90;;;;;;4990911;28;20671;-80
2023/09/06 05:10:29;;;;;;;0.10;0.10;;;17.30;99.90;;;;;;4992416;28;20770;-80
2023/09/06 05:12:54;;;;;;;0.10;0.10;;;17.30;99.90;;;;;;4991065;28;20239;-79
2023/09/06 05:15:20;;;;;;;0.10;0.10;;;17.30;99.90;;;;;;4989578;28;20208;-80
2023/09/06 05:17:45;;;;;;;0.10;0.10;;;17.40;99.90;;;;;;4984130;28;20192;-82
2023/09/06 05:20:30;;;;;;;0.10;0.10;;;17.40;99.90;;;;;;4987599;28;20624;-83
2023/09/06 05:22:57;;;;;;;0.10;0.10;;;17.50;99.90;;;;;;4994241;28;20244;-82
2023/09/06 05:25:23;;;;;;;0.10;0.10;;;17.50;99.90;;;;;;4985198;28;20188;-83
2023/09/06 05:27:49;;;;;;;0.10;0.10;;;17.60;99.90;;;;;;4984511;28;20195;-82
2023/09/06 05:30:14;;;;;;;0.10;0.10;;;17.60;99.90;;;;;;4992378;28;20192;-83
2023/09/06 05:32:40;;;;;;;0.10;0.10;;;17.50;99.90;;;;;;4984633;28;20695;-82
2023/09/06 05:35:06;;;;;;;0.10;0.10;;;17.40;99.90;;;;;;4997603;28;20244;-83
2023/09/06 05:37:32;;;;;;;0.10;0.10;;;17.40;99.90;;;;;;4980968;28;20255;-82
2023/09/06 05:39:57;;;;;;;0.10;0.10;;;17.30;99.90;;;;;;4985267;28;20286;-83
2023/09/06 05:42:23;;;;;;;0.10;0.10;;;17.30;99.90;;;;;;4985342;28;20228;-83
2023/09/06 05:44:49;;;;;;;0.10;0.10;;;17.40;99.90;;;;;;4979235;28;20181;-83
2023/09/06 05:47:14;;;;;;;0.10;0.10;;;17.30;99.90;;;;;;4986809;28;20196;-83
2023/09/06 05:49:40;;;;;;;0.10;0.10;;;17.40;99.90;;;;;;4986708;28;20184;-83
2023/09/06 05:52:06;;;;;;;0.10;0.10;;;17.60;99.90;;;;;;4980116;28;20222;-83
2023/09/06 05:54:32;;;;;;;0.03;0.03;;;17.80;99.90;;;;;;4987371;28;20770;-82
2023/09/06 05:56:57;;;;;;;0.10;0.10;;;18.00;99.90;;;;;;4980757;28;20658;-82
2023/09/06 05:59:23;;;;;;;0.10;0.10;;;18.10;99.90;;;;;;4980618;28;20198;-83
2023/09/06 06:01:49;;;;;;;0.10;0.10;;;18.10;99.90;;;;;;4978796;28;20260;-82
2023/09/06 06:04:15;;;;;;;0.10;0.10;;;18.20;99.90;;;;;;4979645;28;20207;-83
2023/09/06 06:06:41;;;;;;;0.10;0.10;;;18.40;99.90;;;;;;4985905;28;20188;-83
2023/09/06 06:09:11;;;;;;;0.10;0.10;;;18.60;99.90;;;;;;4980848;28;20719;-82
2023/09/06 06:11:40;;;;;;;0.10;0.10;;;18.70;99.90;;;;;;4980248;28;20195;-83
2023/09/06 06:14:06;;;;;;;0.10;0.10;;;18.70;99.90;;;;;;4987551;28;20680;-83
2023/09/06 06:16:31;;;;;;;0.10;0.10;;;18.90;99.90;;;;;;4984621;28;20279;-83
2023/09/06 06:18:57;;;;;;;0.10;0.10;;;19.10;99.90;;;;;;4987062;28;20196;-83
2023/09/06 06:21:24;;;;;;;0.10;0.10;;;19.30;99.90;;;;;;4980165;28;20207;-82
2023/09/06 06:23:50;;;;;;;0.10;0.10;;;19.30;99.90;;;;;;4981548;28;20573;-82
2023/09/06 06:26:19;;;;;;;0.10;0.10;;;19.40;99.90;;;;;;4979469;28;20266;-83
2023/09/06 06:28:45;;;;;;;0.10;0.10;;;19.60;99.90;;;;;;4985967;28;20202;-83
2023/09/06 06:31:11;;;;;;;0.10;0.10;;;19.60;99.90;;;;;;4986829;28;20199;-82
2023/09/06 06:33:38;;;;;;;0.10;0.10;;;19.80;99.90;;;;;;4985709;28;20273;-82
2023/09/06 06:36:04;;;;;;;0.10;0.10;;;19.90;99.90;;;;;;4979606;28;20214;-83
2023/09/06 06:38:30;;;;;;;0.10;0.10;;;19.90;99.90;;;;;;4987389;28;20191;-83
2023/09/06 06:40:56;;;;;;;0.10;0.10;;;20.00;99.90;;;;;;4986940;28;20680;-83
2023/09/06 06:43:21;;;;;;;0.10;0.10;;;20.20;99.90;;;;;;4979103;28;20209;-82
2023/09/06 06:45:52;;;;;;;0.10;0.10;;;20.30;99.90;;;;;;4984996;28;20737;-82
2023/09/06 06:48:18;;;;;;;0.10;0.10;;;20.30;99.90;;;;;;4979821;28;20192;-83
2023/09/06 06:50:43;;;;;;;0.10;0.10;;;20.50;99.90;;;;;;4986228;28;20646;-82
2023/09/06 06:53:09;;;;;;;0.10;0.10;;;20.70;99.90;;;;;;4985398;28;20199;-82
2023/09/06 06:55:34;;;;;;;0.10;0.10;;;20.80;99.90;;;;;;4995031;28;20188;-82
2023/09/06 06:58:00;;;;;;;0.10;0.10;;;20.90;99.90;;;;;;4979251;28;20200;-82
2023/09/06 07:00:25;;;;;;;0.10;0.10;;;21.10;99.90;;;;;;4978163;28;20723;-83
2023/09/06 07:02:51;;;;;;;0.10;0.10;;;21.20;99.90;;;;;;4978685;28;20278;-82
2023/09/06 07:05:16;;;;;;;0.10;0.10;;;21.40;99.90;;;;;;4979084;28;20184;-83
2023/09/06 07:07:42;;;;;;;0.10;0.10;;;21.60;99.90;;;;;;4979074;28;20191;-82
2023/09/06 07:10:08;;;;;;;0.10;0.10;;;21.70;99.90;;;;;;4978791;28;20525;-83
2023/09/06 07:12:35;;;;;;;0.10;0.10;;;22.00;99.90;;;;;;4983753;28;20204;-83
2023/09/06 07:15:02;;;;;;;0.10;0.10;;;22.20;99.90;;;;;;4978859;28;20194;-82
2023/09/06 07:17:27;;;;;;;0.10;0.10;;;22.30;99.90;;;;;;4983762;28;20219;-82
2023/09/06 07:19:54;;;;;;;0.10;0.10;;;22.50;99.90;;;;;;4979813;28;20180;-82
2023/09/06 07:22:19;;;;;;;0.10;0.10;;;22.60;99.90;;;;;;4985074;28;20297;-80
2023/09/06 07:24:45;;;;;;;0.10;0.10;;;22.50;99.90;;;;;;4980766;28;20289;-80
2023/09/06 07:27:11;;;;;;;0.10;0.10;;;22.70;99.90;;;;;;4987028;28;20742;-79
2023/09/06 07:29:36;;;;;;;0.10;0.10;;;22.30;99.90;;;;;;4981250;28;20239;-80
2023/09/06 07:32:03;;;;;;;0.10;0.10;;;22.50;99.90;;;;;;4989480;28;20290;-80
2023/09/06 07:34:30;;;;;;;0.10;0.10;;;22.80;99.90;;;;;;4988787;28;20186;-80
2023/09/06 07:36:55;;;;;;;0.10;0.10;;;22.60;99.90;;;;;;4982208;28;20682;-80
2023/09/06 07:39:21;;;;;;;0.10;0.10;;;22.60;99.90;;;;;;4989391;28;20239;-80
2023/09/06 07:41:48;;;;;;;0.10;0.10;;;22.80;99.90;;;;;;4983069;28;20230;-80
2023/09/06 07:44:14;;;;;;;0.10;0.10;;;22.50;99.90;;;;;;4990168;28;20295;-80
2023/09/06 07:46:41;;;;;;;0.10;0.10;;;22.70;99.90;;;;;;4989138;28;20923;-83
2023/09/06 07:49:06;;;;;;;0.10;0.10;;;22.80;99.90;;;;;;4984833;28;20188;-81
2023/09/06 07:51:32;;;;;;;0.10;0.10;;;22.60;99.90;;;;;;4996067;28;20201;-82
2023/09/06 07:53:57;;;;;;;0.10;0.10;;;23.00;99.90;;;;;;4989605;28;20238;-80
2023/09/06 07:56:23;;;;;;;0.10;0.10;;;23.10;99.90;;;;;;4979086;28;20205;-80
2023/09/06 07:58:48;;;;;;;0.10;0.10;;;23.00;99.90;;;;;;4989246;28;20550;-80
2023/09/06 08:01:14;;;;;;;0.10;0.10;;;23.10;99.90;;;;;;4981765;28;20211;-80
2023/09/06 08:03:40;;;;;;;6.33;5.93;;;23.00;99.90;;;;;;4987687;28;20678;-80
2023/09/06 08:06:07;;;;;;;0.10;0.10;;;22.60;99.90;;;;;;4983112;28;20187;-80
2023/09/06 08:08:32;;;;;;;0.10;0.10;;;22.80;99.90;;;;;;4980816;28;20357;-80
2023/09/06 08:10:58;;;;;;;0.10;0.10;;;22.80;99.90;;;;;;4984599;28;20841;-80
2023/09/06 08:13:24;;;;;;;0.10;0.10;;;22.40;99.90;;;;;;4981422;28;20188;-80
2023/09/06 08:15:49;;;;;;;0.10;0.10;;;22.70;99.90;;;;;;4988810;28;20674;-80
2023/09/06 08:18:15;;;;;;;0.10;0.10;;;22.60;99.90;;;;;;4981453;28;20191;-79
2023/09/06 08:20:40;;;;;;;0.10;0.10;;;22.50;99.90;;;;;;4981960;28;20180;-80
2023/09/06 08:23:06;;;;;;;0.10;0.10;;;22.60;99.90;;;;;;4982219;28;20228;-80
2023/09/06 08:25:33;;;;;;;0.43;0.43;;;23.00;99.90;;;;;;4998375;28;22134;-80
2023/09/06 08:27:59;;;;;;;0.10;0.10;;;23.00;99.90;;;;;;4979512;28;20600;-80
2023/09/06 08:30:24;;;;;;;0.10;0.10;;;23.40;99.90;;;;;;4982302;28;20179;-80
2023/09/06 08:32:51;;;;;;;0.10;0.10;;;23.40;99.90;;;;;;4978055;28;20216;-80
2023/09/06 08:35:20;;;;;;;0.10;0.10;;;23.50;99.90;;;;;;4978536;28;20188;-80
2023/09/06 08:37:48;;;;;;;0.60;0.60;;;23.40;99.90;;;;;;4993525;28;20264;-80
2023/09/06 08:40:15;;;;;;;0.10;0.10;;;23.40;99.90;;;;;;5008362;28;20192;-80
2023/09/06 08:42:44;;;;;;;0.10;0.10;;;23.70;99.90;;;;;;4998174;28;20230;-80
2023/09/06 08:45:10;;;;;;;0.10;0.10;;;23.60;99.90;;;;;;4985506;28;20266;-80
2023/09/06 08:47:40;;;;;;;0.10;0.10;;;23.30;99.90;;;;;;4986394;28;20199;-79
2023/09/06 08:50:10;;;;;;;0.50;0.50;;;23.80;99.90;;;;;;5001228;28;20208;-79
2023/09/06 08:52:42;;;;;;;0.10;0.10;;;23.90;99.90;;;;;;4984136;28;20290;-79
2023/09/06 08:55:10;;;;;;;0.10;0.10;;;24.10;99.90;;;;;;4982105;28;20181;-79
2023/09/06 08:57:40;;;;;;;0.10;0.10;;;24.10;99.90;;;;;;4978786;28;20765;-79
2023/09/06 09:00:10;;;;;;;0.10;0.10;;;24.40;99.90;;;;;;4989162;28;20605;-79
2023/09/06 09:02:46;;;;;;;0.10;0.10;;;24.30;99.90;;;;;;4980134;28;20200;-80
2023/09/06 09:05:12;;;;;;;0.10;0.10;;;23.90;99.90;;;;;;4981885;28;20979;-80
2023/09/06 09:07:38;;;;;;;0.10;0.10;;;23.80;99.90;;;;;;4987592;28;20274;-79
2023/09/06 09:10:08;;;;;;;0.10;0.10;;;24.10;99.90;;;;;;4988627;28;20365;-80
2023/09/06 09:12:35;;;;;;;0.10;0.10;;;24.50;99.90;;;;;;4981378;28;20242;-79
2023/09/06 09:15:02;;;;;;;0.10;0.10;;;24.60;99.90;;;;;;4988720;28;20176;-82
2023/09/06 09:17:29;;;;;;;0.10;0.10;;;24.50;99.90;;;;;;4986146;28;20199;-80
2023/09/06 09:19:57;;;;;;;0.10;0.10;;;24.60;99.90;;;;;;4979810;28;20176;-82
2023/09/06 09:22:25;;;;;;;0.10;0.10;;;24.40;99.90;;;;;;4979043;28;20216;-81
2023/09/06 09:25:00;;;;;;;0.10;0.10;;;24.10;99.90;;;;;;4980979;28;21160;-82
2023/09/06 09:27:29;;;;;;;0.10;0.10;;;24.20;99.90;;;;;;4978709;28;20211;-81
2023/09/06 09:29:55;;;;;;;0.10;0.10;;;24.20;99.90;;;;;;4996191;28;20191;-80
2023/09/06 09:32:21;;;;;;;0.10;0.10;;;24.40;99.90;;;;;;4985324;28;20248;-79
2023/09/06 09:34:47;;;;;;;0.10;0.10;;;24.50;99.90;;;;;;4987820;28;20917;-79
2023/09/06 09:37:13;;;;;;;0.10;0.10;;;24.90;99.90;;;;;;4979623;28;20188;-79
2023/09/06 09:39:39;;;;;;;0.10;0.10;;;25.20;99.90;;;;;;4988608;28;20208;-79
2023/09/06 09:42:09;;;;;;;0.10;0.10;;;24.50;99.90;;;;;;4979502;28;20247;-79
2023/09/06 09:44:35;;;;;;;0.10;0.10;;;24.90;99.90;;;;;;4981264;28;20865;-80
2023/09/06 09:47:10;;;;;;;0.10;0.10;;;25.00;99.90;;;;;;4988865;28;20188;-79
2023/09/06 09:49:36;;;;;;;0.10;0.10;;;25.60;99.90;;;;;;4979719;28;20171;-79
2023/09/06 09:52:02;;;;;;;0.10;0.10;;;25.10;99.90;;;;;;4986494;28;20200;-79
2023/09/06 09:54:33;;;;;;;0.10;0.10;;;25.50;99.90;;;;;;4995597;28;20663;-80
2023/09/06 09:57:05;;;;;;;0.10;0.10;;;25.20;99.90;;;;;;4981085;28;20192;-80
2023/09/06 09:59:33;;;;;;;0.10;0.10;;;25.40;99.90;;;;;;4979413;28;20318;-79
2023/09/06 10:02:00;;;;;;;0.10;0.10;;;25.50;99.90;;;;;;4981204;28;20211;-80
2023/09/06 10:04:27;;;;;;;0.10;0.10;;;25.80;99.90;;;;;;4987702;28;20219;-80
2023/09/06 10:06:55;;;;;;;0.10;0.10;;;26.10;99.90;;;;;;4980769;28;20199;-80
2023/09/06 10:09:22;;;;;;;0.10;0.10;;;26.40;99.90;;;;;;4980426;28;20702;-81
2023/09/06 10:11:50;;;;;;;0.10;0.10;;;26.30;99.90;;;;;;4981466;28;20231;-81
2023/09/06 10:14:19;;;;;;;0.10;0.10;;;26.50;99.90;;;;;;4980854;28;20307;-81
2023/09/06 10:16:47;;;;;;;0.10;0.10;;;26.30;99.90;;;;;;4988629;28;20691;-81
2023/09/06 10:19:13;;;;;;;0.10;0.10;;;26.40;99.90;;;;;;4984122;28;20181;-81
2023/09/06 10:21:39;;;;;;;0.10;0.10;;;26.60;99.90;;;;;;4982533;28;20227;-81
2023/09/06 10:24:15;;;;;;;0.20;0.20;;;26.60;99.90;;;;;;4979764;28;20555;-81
2023/09/06 10:26:43;;;;;;;0.10;0.10;;;25.70;99.90;;;;;;4995434;28;20186;-81
2023/09/06 10:29:09;;;;;;;0.10;0.10;;;25.90;99.90;;;;;;4988917;28;20243;-81
2023/09/06 10:31:45;;;;;;;0.10;0.10;;;26.30;99.90;;;;;;4981718;28;20267;-81
2023/09/06 10:34:13;;;;;;;0.10;0.10;;;26.50;99.90;;;;;;4987507;28;20242;-81
2023/09/06 10:36:56;;;;;;;0.10;0.10;;;26.80;99.90;;;;;;4981877;28;20196;-81
2023/09/06 10:39:25;;;;;;;0.10;0.10;;;26.80;99.90;;;;;;4984783;28;20880;-81
2023/09/06 10:42:09;;;;;;;0.10;0.10;;;27.00;99.90;;;;;;4978569;28;20228;-81
2023/09/06 10:44:53;;;;;;;0.75;0.75;;;26.90;99.90;;;;;;4981316;28;20208;-80
2023/09/06 10:47:31;;;;;;;0.10;0.10;;;26.90;99.90;;;;;;4988163;28;21152;-81
2023/09/06 10:50:18;;;;;;;0.10;0.10;;;27.20;99.90;;;;;;4980068;28;20242;-81
2023/09/06 10:52:49;;;;;;;0.10;0.10;;;27.00;99.90;;;;;;4996550;28;20206;-81
2023/09/06 10:55:18;;;;;;;0.10;0.10;;;26.80;99.90;;;;;;4986835;28;20195;-81
2023/09/06 10:57:48;;;;;;;0.10;0.10;;;27.20;99.90;;;;;;4978605;28;20188;-81
2023/09/06 11:00:21;;;;;;;0.10;0.10;;;27.40;99.90;;;;;;4985114;28;20270;-81
2023/09/06 11:03:07;;;;;;;0.10;0.10;;;27.30;99.90;;;;;;4980950;28;20188;-81
2023/09/06 11:05:39;;;;;;;0.10;0.10;;;27.30;99.90;;;;;;4978704;28;20180;-81
2023/09/06 11:08:06;;;;;;;0.10;0.10;;;27.40;99.90;;;;;;4987065;28;20668;-81
2023/09/06 11:10:32;;;;;;;0.10;0.10;;;27.50;99.90;;;;;;4985607;28;20189;-81
2023/09/06 11:13:10;;;;;;;0.05;0.05;;;27.40;99.90;;;;;;4986885;28;20222;-81
2023/09/06 11:15:36;;;;;;;0.10;0.10;;;27.40;99.90;;;;;;4978783;28;20198;-81
2023/09/06 11:18:03;;;;;;;0.10;0.10;;;26.80;99.90;;;;;;4982487;28;20341;-80
2023/09/06 11:20:30;;;;;;;0.10;0.10;;;26.50;99.90;;;;;;4982306;28;20526;-81
2023/09/06 11:23:00;;;;;;;0.10;0.10;;;26.60;99.90;;;;;;4979609;28;20239;-81
2023/09/06 11:25:28;;;;;;;0.10;0.10;;;26.40;99.90;;;;;;4985323;28;20183;-81
2023/09/06 11:27:58;;;;;;;0.10;0.10;;;26.70;99.90;;;;;;4981040;28;20345;-81
2023/09/06 11:30:26;;;;;;;0.10;0.10;;;27.20;99.90;;;;;;4976525;28;20203;-81
2023/09/06 11:32:53;;;;;;;0.10;0.10;;;27.40;99.90;;;;;;4979517;28;20204;-81
2023/09/06 11:35:22;;;;;;;0.40;0.40;;;26.80;99.90;;;;;;4976386;28;20176;-81
2023/09/06 11:37:51;;;;;;;0.10;0.10;;;26.70;99.90;;;;;;4981215;28;20598;-81
2023/09/06 11:40:20;;;;;;;0.10;0.10;;;26.80;99.90;;;;;;4980571;28;20191;-80
2023/09/06 11:42:52;;;;;;;0.10;0.10;;;27.00;99.90;;;;;;4994761;28;20350;-81
2023/09/06 11:45:20;;;;;;;0.90;0.90;;;26.80;99.90;;;;;;4979680;28;20226;-81
2023/09/06 11:47:47;;;;;;;0.10;0.10;;;27.10;99.90;;;;;;4978263;28;20200;-81
2023/09/06 11:50:18;;;;;;;0.10;0.10;;;27.10;99.90;;;;;;4983547;28;20350;-81
2023/09/06 11:52:48;;;;;;;0.10;0.10;;;27.60;99.90;;;;;;4978908;28;20702;-81
2023/09/06 11:55:19;;;;;;;0.10;0.10;;;28.00;99.90;;;;;;4977189;28;20283;-81
2023/09/06 11:57:52;;;;;;;0.10;0.10;;;27.80;99.90;;;;;;4986846;28;20200;-80
2023/09/06 12:00:28;;;;;;;0.10;0.10;;;27.30;99.90;;;;;;4994511;28;20169;-80
2023/09/06 12:03:03;;;;;;;0.10;0.10;;;27.70;99.90;;;;;;4976372;28;20270;-81
2023/09/06 12:05:29;;;;;;;0.10;0.10;;;27.60;99.90;;;;;;4978006;28;20191;-81
2023/09/06 12:07:55;;;;;;;0.10;0.10;;;27.60;99.90;;;;;;4978520;28;20263;-80
2023/09/06 12:10:22;;;;;;;0.10;0.10;;;28.20;99.90;;;;;;4980192;28;20262;-80
2023/09/06 12:12:50;;;;;;;0.10;0.10;;;28.40;99.90;;;;;;4978685;28;20223;-80
2023/09/06 12:15:19;;;;;;;0.10;0.10;;;28.50;99.90;;;;;;4989981;28;20788;-81
2023/09/06 12:17:49;;;;;;;0.10;0.10;;;28.00;99.90;;;;;;4979844;28;20550;-81
2023/09/06 12:20:24;;;;;;;0.10;0.10;;;28.20;99.90;;;;;;4989351;28;20176;-81
2023/09/06 12:22:52;;;;;;;0.10;0.10;;;28.50;99.90;;;;;;4982282;28;20272;-81
2023/09/06 12:25:19;;;;;;;0.10;0.10;;;28.30;99.90;;;;;;4980985;28;20184;-80
2023/09/06 12:27:46;;;;;;;0.10;0.10;;;28.60;99.90;;;;;;4993331;28;20185;-80
2023/09/06 12:30:14;;;;;;;0.10;0.10;;;28.40;99.90;;;;;;4989487;28;20175;-80
2023/09/06 12:32:40;;;;;;;0.10;0.10;;;27.80;99.90;;;;;;4987228;28;20208;-81
2023/09/06 12:35:07;;;;;;;0.10;0.10;;;28.20;99.90;;;;;;4987324;28;20211;-80
2023/09/06 12:37:35;;;;;;;0.10;0.10;;;28.10;99.90;;;;;;4983653;28;20525;-80
2023/09/06 12:40:01;;;;;;;0.10;0.10;;;27.90;99.90;;;;;;4988533;28;20206;-80
2023/09/06 12:42:26;;;;;;;0.10;0.10;;;27.60;99.90;;;;;;4988591;28;20303;-80
2023/09/06 12:44:52;;;;;;;0.10;0.10;;;28.00;99.90;;;;;;4981510;28;20806;-81
2023/09/06 12:47:17;;;;;;;0.10;0.10;;;28.40;99.90;;;;;;4981478;28;20571;-80
2023/09/06 12:49:43;;;;;;;0.10;0.10;;;28.40;99.90;;;;;;4988806;28;20177;-80